Pagina principală
METAR-TAF:

METAR-TAF

Aeroporturi :

Garoua, Camerun

Latitudine: 09-20N, longitudine: 013-23E, elevație: 242 m

Observații meteo curente

Raportul a fost făcut în urmă cu 34 de minute, la 11:00 UTC
Vânt 13 kt de la Vest
Temperatură 39°C
Umiditate 36%
Presiune 1010 hPa
Vizibilitate de 10 km sau mai mult
nu există nori sub 1.500 m și nici cumulonimbus

METAR: FKKR 211100Z 27013KT CAVOK 39/21 Q1010 NOSIG

Ora: 12:34 (11:34 UTC)

Prognoză

Raportul a fost făcut în urmă cu 6 ore și 34 de minute, la 05:00 UTC
Prognoză valabilă de la 21 ora 06 UTC la 21 ora 18 UTC
Vânt 6 kt din direcții variabile
Vizibilitate de 10 km sau mai mult
Nori puțini la o înălțime de 2000 picior
Temporar
de la 21 ora 14 UTC la 21 ora 18 UTC
Vizibilitate: 4000 m
Nori fragmentați la o înălțime de 1600 picior
Nori puțini la o înălțime de 2300 picior, Cumulonimbus.
oraj, ploaie,

TAF: FKKR 210500Z 2106/2118 VRB06KT 9999 FEW020 TEMPO 2114/2118 4000 TSRA BKN016 FEW023CB

Observații și prognoze meteo pentru peste 4.000 de aeroporturi (rapoarte METAR și TAF).

Stațiile disponibile sunt reprezentate pe hartă prin puncte galbene și roșii.

Țineți indicatorul mouse-ului pe punctul dorit pentru a vedea denumirea stației.

Apoi, faceți clic pentru a vedea observațiile și prognozele meteorologice.

Pentru a schimba harta: Pentru mărire, faceți clic pe butoanele verzi cu cruce neagră; pentru micșorare, pe butonul verde cu o liniuță; pentru hărți învecinate, pe săgețile verzi.


METAR-TAF: